Time;durP1;ratioP1;P1;durP2;ratioP2;P2;SDS_P1;SDS_P2;PMS_P1;PMS_P2;Temp;Humidity;BMP_temperature;BMP_pressure;BME280_temperature;BME280_humidity;BME280_pressure;Samples;Min_cycle;Max_cycle;Signal;HPM_P1;HPM_P2
2024/01/13 00:01:19;;;;;;;49.70;23.50;;;;;;;1.99;54.62;98540.47;5053215;28;20313;-70
2024/01/13 00:03:44;;;;;;;51.93;23.30;;;;;;;2.03;54.55;98538.59;5051917;28;20187;-68
2024/01/13 00:06:09;;;;;;;46.03;23.03;;;;;;;2.05;53.80;98541.97;5048579;28;20230;-68
2024/01/13 00:08:35;;;;;;;46.07;22.63;;;;;;;2.09;53.86;98545.25;5052816;28;20237;-69
2024/01/13 00:11:00;;;;;;;46.73;21.90;;;;;;;2.03;54.48;98542.91;5042855;28;20251;-68
2024/01/13 00:13:26;;;;;;;41.33;21.17;;;;;;;2.02;54.26;98533.50;5042483;28;20204;-67
2024/01/13 00:15:51;;;;;;;47.57;22.27;;;;;;;1.90;54.20;98533.09;5051470;28;20287;-70
2024/01/13 00:18:19;;;;;;;49.67;23.97;;;;;;;1.91;54.60;98532.19;5048168;28;20400;-70
2024/01/13 00:20:45;;;;;;;53.50;23.70;;;;;;;1.61;55.36;98535.16;5061037;28;20228;-70
2024/01/13 00:23:10;;;;;;;50.83;24.37;;;;;;;1.71;55.53;98529.59;5064622;28;20418;-67
2024/01/13 00:25:36;;;;;;;51.37;24.47;;;;;;;1.75;55.23;98533.75;5052422;28;20543;-69
2024/01/13 00:28:01;;;;;;;45.20;23.97;;;;;;;1.91;55.05;98529.59;5065200;28;20240;-69
2024/01/13 00:30:27;;;;;;;52.30;24.07;;;;;;;1.83;54.38;98531.69;5061831;28;20586;-69
2024/01/13 00:32:52;;;;;;;49.37;24.53;;;;;;;1.91;54.83;98527.00;5056472;28;20195;-67
2024/01/13 00:35:18;;;;;;;54.10;24.60;;;;;;;1.78;55.02;98520.69;5064406;28;20564;-67
2024/01/13 00:37:44;;;;;;;53.53;24.77;;;;;;;1.88;55.25;98510.78;5050887;28;20268;-69
2024/01/13 00:40:12;;;;;;;51.90;24.47;;;;;;;1.87;54.78;98499.63;5052219;28;20316;-68
2024/01/13 00:42:38;;;;;;;56.70;25.40;;;;;;;1.90;54.83;98502.06;5038898;28;20460;-68
2024/01/13 00:45:04;;;;;;;48.30;23.67;;;;;;;1.81;54.84;98500.72;5045772;28;20934;-68
2024/01/13 00:47:29;;;;;;;50.37;24.93;;;;;;;1.81;54.74;98499.88;5059365;28;20672;-69
2024/01/13 00:49:55;;;;;;;47.90;23.30;;;;;;;1.84;54.93;98502.34;5059264;28;20178;-69
2024/01/13 00:52:20;;;;;;;44.47;23.40;;;;;;;1.81;55.29;98500.72;5048176;28;20171;-67
2024/01/13 00:54:45;;;;;;;52.13;24.87;;;;;;;1.76;55.62;98494.91;5057049;28;20236;-68
2024/01/13 00:57:11;;;;;;;58.97;26.80;;;;;;;1.74;56.23;98496.72;5050637;28;20266;-69
2024/01/13 00:59:36;;;;;;;55.50;25.47;;;;;;;1.87;55.43;98488.44;5062424;28;20210;-69
2024/01/13 01:02:02;;;;;;;56.13;24.93;;;;;;;2.05;55.03;98484.19;5047424;28;20203;-69
2024/01/13 01:04:27;;;;;;;61.37;25.70;;;;;;;2.10;54.57;98477.09;5043033;28;20175;-67
2024/01/13 01:06:53;;;;;;;49.90;25.07;;;;;;;2.14;54.53;98476.06;5043630;28;20848;-69
2024/01/13 01:09:18;;;;;;;49.50;23.40;;;;;;;1.87;55.04;98478.94;5047230;28;20675;-69
2024/01/13 01:11:43;;;;;;;56.67;27.23;;;;;;;1.99;55.12;98475.81;5053727;28;20667;-69
2024/01/13 01:14:09;;;;;;;56.57;26.00;;;;;;;1.84;54.96;98476.47;5058963;28;20258;-68
2024/01/13 01:16:34;;;;;;;56.43;25.50;;;;;;;1.87;55.58;98476.34;5052557;28;20274;-67
2024/01/13 01:19:00;;;;;;;55.13;25.60;;;;;;;1.86;55.46;98479.84;5047858;28;20224;-68
2024/01/13 01:21:25;;;;;;;57.90;26.57;;;;;;;1.77;55.44;98480.22;5042855;28;20202;-70
2024/01/13 01:23:51;;;;;;;61.07;26.00;;;;;;;1.87;54.98;98481.53;5045118;28;20210;-68
2024/01/13 01:26:17;;;;;;;63.93;26.60;;;;;;;1.94;54.95;98485.50;5048653;28;20227;-69
2024/01/13 01:28:43;;;;;;;59.97;26.57;;;;;;;1.73;55.71;98487.28;5053278;28;20776;-70
2024/01/13 01:31:08;;;;;;;59.47;27.00;;;;;;;1.83;55.55;98480.78;5062259;28;20183;-67
2024/01/13 01:33:34;;;;;;;65.33;29.53;;;;;;;1.75;55.15;98476.88;5056014;28;20195;-68
2024/01/13 01:35:59;;;;;;;65.50;27.83;;;;;;;1.77;55.41;98481.06;5049058;28;20313;-68
2024/01/13 01:38:25;;;;;;;71.17;29.53;;;;;;;1.61;56.23;98478.31;5050577;28;20210;-68
2024/01/13 01:40:54;;;;;;;61.57;29.80;;;;;;;1.61;56.28;98472.28;5055665;28;20649;-68
2024/01/13 01:43:20;;;;;;;67.50;28.80;;;;;;;1.62;56.09;98469.66;5031638;28;20296;-69
2024/01/13 01:45:50;;;;;;;73.57;29.37;;;;;;;1.68;56.51;98469.38;5060479;28;20517;-69
2024/01/13 01:48:16;;;;;;;64.40;29.07;;;;;;;1.62;56.10;98458.47;5050493;28;20440;-67
2024/01/13 01:50:41;;;;;;;62.93;28.87;;;;;;;1.67;56.16;98459.94;5045007;28;20553;-69
2024/01/13 01:53:07;;;;;;;75.13;29.23;;;;;;;1.60;56.32;98453.38;5043240;28;20188;-68
2024/01/13 01:55:33;;;;;;;70.47;30.07;;;;;;;1.55;56.30;98452.72;5046732;28;20211;-67
2024/01/13 01:58:00;;;;;;;67.80;29.17;;;;;;;1.64;56.64;98452.31;5046981;28;20206;-70
2024/01/13 02:00:27;;;;;;;65.03;29.93;;;;;;;1.80;56.30;98449.06;5031146;28;20189;-68
2024/01/13 02:02:53;;;;;;;70.03;30.27;;;;;;;1.60;56.39;98450.78;5041673;28;20468;-70
2024/01/13 02:05:21;;;;;;;65.70;28.50;;;;;;;1.70;56.20;98446.06;5057922;28;20425;-71
2024/01/13 02:07:50;;;;;;;73.53;29.77;;;;;;;1.64;56.12;98452.31;5044770;28;20479;-68
2024/01/13 02:10:19;;;;;;;69.40;30.30;;;;;;;1.77;56.42;98439.72;5043458;28;20476;-69
2024/01/13 02:12:45;;;;;;;64.80;28.93;;;;;;;1.71;55.93;98441.72;5029465;28;20430;-71
2024/01/13 02:15:10;;;;;;;62.40;27.03;;;;;;;1.77;55.83;98437.13;5047767;28;20433;-69
2024/01/13 02:17:37;;;;;;;72.97;29.80;;;;;;;1.85;56.21;98434.22;5057642;28;20218;-68
2024/01/13 02:20:05;;;;;;;67.20;30.10;;;;;;;1.76;56.16;98432.03;5037903;28;20195;-67
2024/01/13 02:22:31;;;;;;;69.10;30.40;;;;;;;1.73;56.37;98432.16;5050379;28;20456;-69
2024/01/13 02:24:58;;;;;;;62.97;30.20;;;;;;;1.87;56.13;98437.56;5059079;28;20422;-69
2024/01/13 02:27:23;;;;;;;68.30;28.70;;;;;;;1.99;55.85;98424.09;5033488;28;20430;-67
2024/01/13 02:29:49;;;;;;;67.90;29.17;;;;;;;2.03;55.07;98421.34;5040078;28;20487;-69
2024/01/13 02:32:14;;;;;;;58.40;27.50;;;;;;;2.08;55.14;98427.16;5054717;28;20182;-68
2024/01/13 02:34:40;;;;;;;61.53;27.97;;;;;;;1.96;55.47;98421.63;5049540;28;20175;-69
2024/01/13 02:37:05;;;;;;;56.20;26.80;;;;;;;1.84;55.80;98411.84;5054579;28;20249;-68
2024/01/13 02:39:31;;;;;;;60.00;28.03;;;;;;;1.68;56.05;98415.09;5056470;28;20328;-70
2024/01/13 02:41:56;;;;;;;56.23;22.70;;;;;;;1.49;56.75;98416.81;5063793;28;20256;-71
2024/01/13 02:44:22;;;;;;;64.13;27.47;;;;;;;1.68;56.44;98412.50;5048947;28;20233;-68
2024/01/13 02:46:48;;;;;;;65.33;26.50;;;;;;;1.81;56.49;98414.56;5037096;28;20216;-68
2024/01/13 02:49:13;;;;;;;59.87;26.90;;;;;;;1.81;56.30;98410.25;5049297;28;20436;-68
2024/01/13 02:51:39;;;;;;;58.93;25.70;;;;;;;1.89;56.07;98402.13;5038393;28;20176;-69
2024/01/13 02:54:04;;;;;;;57.13;25.40;;;;;;;1.95;55.79;98412.19;5055332;28;20276;-69
2024/01/13 02:56:31;;;;;;;55.70;25.20;;;;;;;1.95;55.99;98407.03;5056054;28;20208;-67
2024/01/13 02:58:56;;;;;;;56.40;26.50;;;;;;;2.19;55.47;98395.66;5054003;28;20267;-69
2024/01/13 03:01:22;;;;;;;55.20;25.30;;;;;;;2.31;55.11;98382.16;5056987;28;20456;-68
2024/01/13 03:03:49;;;;;;;53.03;24.37;;;;;;;2.13;55.07;98381.25;5047161;28;20191;-70
2024/01/13 03:06:14;;;;;;;58.10;24.67;;;;;;;2.23;54.84;98374.75;5054306;28;20229;-69
2024/01/13 03:08:40;;;;;;;47.43;23.30;;;;;;;2.10;54.45;98373.63;5059974;28;20433;-68
2024/01/13 03:11:05;;;;;;;56.37;25.17;;;;;;;2.04;54.55;98376.47;5067150;28;20603;-68
2024/01/13 03:13:31;;;;;;;52.57;25.50;;;;;;;2.02;55.02;98375.72;5050697;28;20278;-68
2024/01/13 03:15:56;;;;;;;55.77;23.80;;;;;;;2.07;54.86;98374.63;5052833;28;20716;-69
2024/01/13 03:18:22;;;;;;;61.53;26.30;;;;;;;2.11;55.23;98375.31;5060893;28;20780;-70
2024/01/13 03:20:47;;;;;;;57.50;27.40;;;;;;;2.03;54.19;98372.22;5050852;28;20183;-70
2024/01/13 03:23:13;;;;;;;57.50;26.07;;;;;;;2.11;54.57;98368.38;5059543;28;20713;-69
2024/01/13 03:25:38;;;;;;;68.43;28.00;;;;;;;2.08;54.78;98365.91;5050420;28;20183;-70
2024/01/13 03:28:04;;;;;;;66.10;26.70;;;;;;;2.13;54.62;98365.72;5053766;28;20187;-67
2024/01/13 03:30:29;;;;;;;58.60;25.10;;;;;;;2.05;54.59;98366.06;5060017;28;20205;-69
2024/01/13 03:32:55;;;;;;;60.27;27.07;;;;;;;2.07;55.03;98368.59;5048730;28;20218;-68
2024/01/13 03:35:20;;;;;;;68.53;27.67;;;;;;;1.96;54.81;98366.47;5038746;28;20187;-68
2024/01/13 03:37:46;;;;;;;62.17;26.20;;;;;;;1.72;55.55;98364.09;5046399;28;20285;-68
2024/01/13 03:40:11;;;;;;;61.93;27.47;;;;;;;1.82;55.67;98367.97;5056014;28;20221;-68
2024/01/13 03:42:37;;;;;;;65.80;27.07;;;;;;;1.74;55.39;98376.97;5047410;28;20203;-68
2024/01/13 03:45:02;;;;;;;62.80;27.90;;;;;;;1.64;56.11;98379.94;5052928;28;20530;-70
2024/01/13 03:47:28;;;;;;;58.43;26.20;;;;;;;1.77;55.82;98376.81;5050322;28;20205;-67
2024/01/13 03:49:55;;;;;;;54.77;25.33;;;;;;;1.83;55.65;98355.88;5053885;28;20206;-68
2024/01/13 03:52:20;;;;;;;64.13;27.00;;;;;;;1.84;55.59;98362.72;5053144;28;20178;-68
2024/01/13 03:54:45;;;;;;;66.47;27.00;;;;;;;1.82;55.69;98349.88;5067837;28;20558;-69
2024/01/13 03:57:11;;;;;;;58.37;26.50;;;;;;;1.79;55.81;98364.66;5052061;28;20242;-69
2024/01/13 03:59:36;;;;;;;64.73;27.83;;;;;;;1.85;55.31;98359.22;5066258;28;20190;-68
2024/01/13 04:02:02;;;;;;;58.80;27.30;;;;;;;1.93;55.40;98351.94;5051971;28;20289;-70
2024/01/13 04:04:28;;;;;;;60.77;25.97;;;;;;;1.95;55.45;98355.31;5058471;28;20199;-68
2024/01/13 04:06:53;;;;;;;61.33;26.30;;;;;;;2.13;54.96;98345.03;5052368;28;20229;-69
2024/01/13 04:09:19;;;;;;;63.20;26.13;;;;;;;2.17;54.81;98345.72;5042135;28;20211;-69
2024/01/13 04:11:44;;;;;;;65.63;27.07;;;;;;;2.10;54.57;98332.25;5024405;28;20183;-69
2024/01/13 04:14:10;;;;;;;63.83;28.23;;;;;;;2.01;54.99;98328.31;5041457;28;20437;-68
2024/01/13 04:16:35;;;;;;;57.43;25.70;;;;;;;1.87;55.56;98323.81;5058460;28;20214;-68
2024/01/13 04:19:01;;;;;;;68.40;27.93;;;;;;;1.71;56.21;98318.47;5056033;28;20193;-69
2024/01/13 04:21:26;;;;;;;64.57;27.40;;;;;;;1.64;56.30;98323.06;5039161;28;20289;-68
2024/01/13 04:23:52;;;;;;;60.63;27.40;;;;;;;1.71;55.92;98322.81;5041737;28;20685;-68
2024/01/13 04:26:19;;;;;;;71.63;27.03;;;;;;;1.68;55.93;98316.88;5052615;28;20199;-69
2024/01/13 04:28:44;;;;;;;65.20;26.80;;;;;;;1.66;55.89;98317.84;5056335;28;20538;-69
2024/01/13 04:31:10;;;;;;;63.17;26.17;;;;;;;1.71;56.18;98323.63;5048670;28;20456;-69
2024/01/13 04:33:36;;;;;;;60.73;26.67;;;;;;;1.83;55.73;98327.44;5058959;28;20582;-68
2024/01/13 04:36:02;;;;;;;74.37;28.13;;;;;;;1.92;55.68;98318.41;5059222;28;20460;-69
2024/01/13 04:38:27;;;;;;;71.23;29.57;;;;;;;1.86;55.44;98322.13;5032417;28;20188;-68
2024/01/13 04:40:53;;;;;;;57.93;26.30;;;;;;;1.90;55.22;98318.47;5048539;28;20962;-67
2024/01/13 04:43:18;;;;;;;65.53;26.80;;;;;;;1.79;55.53;98307.78;5046590;28;20255;-68
2024/01/13 04:45:44;;;;;;;60.50;27.37;;;;;;;1.75;56.14;98317.44;5048179;28;20279;-68
2024/01/13 04:48:12;;;;;;;63.40;26.83;;;;;;;1.83;55.98;98315.31;5047416;28;20190;-67
2024/01/13 04:50:38;;;;;;;56.63;25.03;;;;;;;1.69;55.81;98304.78;5056562;28;20187;-68
2024/01/13 04:53:03;;;;;;;59.20;26.10;;;;;;;1.75;55.73;98311.44;5054899;28;20551;-69
2024/01/13 04:55:29;;;;;;;69.93;28.50;;;;;;;1.73;55.87;98303.72;5046506;28;20186;-69
2024/01/13 04:57:54;;;;;;;65.93;26.10;;;;;;;1.84;55.56;98311.00;5054453;28;20252;-69
2024/01/13 05:00:20;;;;;;;64.93;26.63;;;;;;;1.90;55.50;98300.38;5050268;28;20182;-68
2024/01/13 05:02:45;;;;;;;68.80;28.20;;;;;;;1.99;55.64;98287.03;5053654;28;20214;-68
2024/01/13 05:05:11;;;;;;;67.60;26.57;;;;;;;2.00;55.81;98303.38;5061933;28;20238;-68
2024/01/13 05:07:37;;;;;;;65.63;26.50;;;;;;;2.09;55.30;98290.00;5040210;28;20211;-68
2024/01/13 05:10:04;;;;;;;69.63;26.97;;;;;;;2.14;55.02;98297.56;5054772;28;20631;-69
2024/01/13 05:12:30;;;;;;;65.30;28.30;;;;;;;2.01;55.38;98293.88;5055516;28;20413;-68
2024/01/13 05:14:55;;;;;;;67.83;28.20;;;;;;;1.97;55.44;98311.25;5055405;28;20436;-69
2024/01/13 05:17:21;;;;;;;68.37;28.53;;;;;;;2.06;55.72;98310.00;5043254;28;20290;-67
2024/01/13 05:19:46;;;;;;;64.50;28.10;;;;;;;2.03;55.05;98310.13;5046557;28;20205;-69
2024/01/13 05:22:11;;;;;;;76.43;29.63;;;;;;;1.77;56.14;98304.41;5060978;28;20206;-68
2024/01/13 05:24:37;;;;;;;67.30;27.67;;;;;;;1.93;55.79;98308.00;5055318;28;20215;-67
2024/01/13 05:27:03;;;;;;;68.77;27.80;;;;;;;1.97;55.24;98308.69;5052263;28;20285;-69
2024/01/13 05:29:28;;;;;;;66.60;28.07;;;;;;;1.95;55.60;98313.94;5049068;28;20191;-69
2024/01/13 05:31:53;;;;;;;78.93;29.67;;;;;;;2.02;55.13;98313.66;5047995;28;20179;-67
2024/01/13 05:34:19;;;;;;;66.67;27.03;;;;;;;1.98;55.25;98308.63;5060014;28;20182;-68
2024/01/13 05:36:45;;;;;;;67.20;28.10;;;;;;;2.05;55.08;98305.75;5052943;28;20642;-66
2024/01/13 05:39:11;;;;;;;72.20;28.27;;;;;;;2.11;55.25;98305.47;5056357;28;20208;-67
2024/01/13 05:41:36;;;;;;;70.70;30.20;;;;;;;2.08;55.31;98295.25;5048473;28;20457;-66
2024/01/13 05:44:01;;;;;;;68.60;27.77;;;;;;;2.05;55.77;98287.63;5056493;28;20285;-68
2024/01/13 05:46:27;;;;;;;74.87;29.23;;;;;;;2.18;55.17;98293.91;5053822;28;20644;-71
2024/01/13 05:48:52;;;;;;;70.13;29.60;;;;;;;2.17;55.26;98296.56;5059371;28;20175;-68
2024/01/13 05:51:18;;;;;;;75.77;30.07;;;;;;;2.10;55.14;98290.84;5056074;28;20179;-69
2024/01/13 05:53:44;;;;;;;66.53;27.30;;;;;;;2.17;55.40;98289.63;5047240;28;20270;-66
2024/01/13 05:56:09;;;;;;;63.63;26.37;;;;;;;2.17;55.31;98291.41;5054304;28;20289;-68
2024/01/13 05:58:35;;;;;;;57.27;26.07;;;;;;;2.07;54.78;98280.66;5009609;28;20967;-66
2024/01/13 06:01:00;;;;;;;64.50;28.00;;;;;;;2.05;55.43;98292.81;5059253;28;20183;-66
2024/01/13 06:03:26;;;;;;;71.33;27.10;;;;;;;2.05;54.65;98292.81;5056155;28;20182;-68
2024/01/13 06:05:52;;;;;;;67.03;27.20;;;;;;;2.03;55.10;98294.63;5051243;28;20688;-67
2024/01/13 06:08:17;;;;;;;66.40;27.33;;;;;;;2.02;54.80;98287.81;5055299;28;20190;-67
2024/01/13 06:10:42;;;;;;;62.80;25.97;;;;;;;2.07;54.66;98296.16;5041882;28;20608;-68
2024/01/13 06:13:08;;;;;;;72.47;27.97;;;;;;;2.02;54.94;98293.78;5060323;28;20647;-68
2024/01/13 06:15:33;;;;;;;65.63;27.93;;;;;;;2.02;55.05;98300.72;5046986;28;20183;-66
2024/01/13 06:17:59;;;;;;;63.27;26.03;;;;;;;1.99;54.42;98296.53;5041283;28;20216;-69
2024/01/13 06:20:24;;;;;;;69.60;28.77;;;;;;;1.98;54.67;98289.66;5052964;28;20227;-68
2024/01/13 06:22:50;;;;;;;77.60;28.40;;;;;;;2.05;54.70;98292.81;5058887;28;20210;-68
2024/01/13 06:25:15;;;;;;;67.03;27.60;;;;;;;2.02;54.98;98287.81;5053321;28;20183;-70
2024/01/13 06:27:41;;;;;;;66.33;28.67;;;;;;;1.97;54.75;98288.84;5057041;28;21008;-68
2024/01/13 06:30:08;;;;;;;57.73;25.60;;;;;;;1.92;55.01;98288.22;5058233;28;20651;-68
2024/01/13 06:32:33;;;;;;;55.20;24.83;;;;;;;1.91;54.51;98280.53;5055658;28;20237;-68
2024/01/13 06:34:59;;;;;;;64.30;26.00;;;;;;;1.92;55.00;98279.63;5060059;28;20428;-67
2024/01/13 06:37:24;;;;;;;57.00;24.67;;;;;;;1.88;54.63;98291.88;5036221;28;20291;-67
2024/01/13 06:39:50;;;;;;;60.23;24.43;;;;;;;2.02;54.90;98290.38;5059423;28;20332;-68
2024/01/13 06:42:15;;;;;;;65.50;27.53;;;;;;;1.91;54.40;98296.88;5050379;28;20248;-71
2024/01/13 06:44:41;;;;;;;64.37;27.40;;;;;;;2.08;54.20;98287.50;5052830;28;20187;-68
2024/01/13 06:47:06;;;;;;;59.00;25.03;;;;;;;1.98;54.08;98292.25;5056831;28;20350;-68
2024/01/13 06:49:33;;;;;;;56.63;23.30;;;;;;;1.96;54.21;98284.56;5054492;28;20812;-69
2024/01/13 06:51:59;;;;;;;59.93;25.97;;;;;;;1.84;54.79;98278.22;5047119;28;20178;-67
2024/01/13 06:54:24;;;;;;;60.83;23.30;;;;;;;1.87;55.03;98279.84;5058138;28;20955;-69
2024/01/13 06:56:50;;;;;;;58.67;23.80;;;;;;;1.68;54.96;98275.50;5049544;28;20225;-68
2024/01/13 06:59:15;;;;;;;50.20;22.90;;;;;;;1.73;54.72;98280.47;5055445;28;20189;-66
2024/01/13 07:01:41;;;;;;;59.87;24.70;;;;;;;1.83;54.44;98275.72;5027710;28;20216;-67
2024/01/13 07:04:06;;;;;;;57.40;23.77;;;;;;;1.86;54.74;98272.13;5050852;28;20267;-68
2024/01/13 07:06:32;;;;;;;62.27;25.13;;;;;;;1.94;54.04;98268.28;5053100;28;20202;-68
2024/01/13 07:08:57;;;;;;;63.73;24.87;;;;;;;1.91;54.35;98271.00;5062893;28;20217;-70
2024/01/13 07:11:23;;;;;;;59.60;25.27;;;;;;;1.72;54.61;98276.19;5068039;28;20182;-68
2024/01/13 07:13:48;;;;;;;62.53;26.53;;;;;;;1.75;54.96;98267.50;5056775;28;20211;-68
2024/01/13 07:16:14;;;;;;;55.07;24.87;;;;;;;1.80;54.16;98268.09;5048745;28;20284;-67
2024/01/13 07:18:39;;;;;;;66.60;26.17;;;;;;;1.74;54.51;98269.22;5057640;28;20174;-69
2024/01/13 07:21:05;;;;;;;62.57;26.27;;;;;;;1.71;54.88;98268.53;5056266;28;20262;-68
2024/01/13 07:23:31;;;;;;;59.57;24.10;;;;;;;1.66;54.90;98266.97;5048793;28;20201;-69
2024/01/13 07:25:58;;;;;;;60.33;25.13;;;;;;;1.76;54.67;98258.81;5049968;28;20418;-67
2024/01/13 07:28:24;;;;;;;58.60;25.33;;;;;;;1.81;53.49;98264.59;5060730;28;20448;-67
2024/01/13 07:30:49;;;;;;;55.57;24.17;;;;;;;1.63;54.33;98256.81;5057655;28;20471;-68
2024/01/13 07:33:15;;;;;;;56.87;23.47;;;;;;;1.52;55.19;98248.69;5051272;28;20177;-67
2024/01/13 07:35:40;;;;;;;57.87;25.13;;;;;;;1.59;54.33;98244.91;5050188;28;20183;-68
2024/01/13 07:38:06;;;;;;;62.67;25.10;;;;;;;1.48;54.99;98247.16;5050886;28;20653;-68
2024/01/13 07:40:31;;;;;;;63.77;25.80;;;;;;;1.43;55.46;98247.38;5046827;28;20206;-69
2024/01/13 07:42:57;;;;;;;66.93;27.20;;;;;;;1.59;55.01;98239.75;5055754;28;20246;-68
2024/01/13 07:45:22;;;;;;;56.07;24.93;;;;;;;1.49;54.78;98243.66;5056233;28;20270;-67
2024/01/13 07:47:49;;;;;;;53.03;23.13;;;;;;;1.33;55.23;98244.34;5056060;28;20227;-68
2024/01/13 07:50:15;;;;;;;51.83;23.17;;;;;;;1.14;55.75;98240.91;5049802;28;20309;-67
2024/01/13 07:52:41;;;;;;;56.80;23.80;;;;;;;1.00;55.70;98252.69;5058061;28;20409;-69
2024/01/13 07:55:06;;;;;;;56.70;23.30;;;;;;;1.11;55.93;98259.97;5060600;28;20497;-68
2024/01/13 07:57:32;;;;;;;60.40;25.73;;;;;;;1.21;55.73;98244.91;5063408;28;20198;-68
2024/01/13 07:59:57;;;;;;;52.07;23.27;;;;;;;1.18;55.80;98245.03;5059523;28;20186;-68
2024/01/13 08:02:23;;;;;;;62.50;24.00;;;;;;;1.35;55.75;98252.88;5059499;28;20256;-66
2024/01/13 08:04:48;;;;;;;58.80;25.20;;;;;;;1.44;55.50;98250.78;5059450;28;20190;-68
2024/01/13 08:07:14;;;;;;;49.60;22.00;;;;;;;1.40;55.33;98244.06;5049934;28;20199;-67
2024/01/13 08:09:39;;;;;;;47.17;22.47;;;;;;;1.27;55.91;98234.28;5050021;28;20266;-68
2024/01/13 08:12:05;;;;;;;53.70;23.90;;;;;;;1.44;55.67;98235.28;5060098;28;20230;-69
2024/01/13 08:14:30;;;;;;;45.43;20.13;;;;;;;1.38;54.98;98247.59;5052911;28;20186;-68
2024/01/13 08:16:56;;;;;;;44.53;21.40;;;;;;;1.34;55.51;98250.34;5061912;28;20822;-68
2024/01/13 08:19:22;;;;;;;52.43;19.93;;;;;;;1.06;55.37;98249.84;5048716;28;20198;-67
2024/01/13 08:21:50;;;;;;;51.07;22.40;;;;;;;1.18;55.89;98250.19;5052666;28;20214;-67
2024/01/13 08:24:15;;;;;;;51.03;20.93;;;;;;;1.14;55.97;98251.22;5045672;28;20517;-67
2024/01/13 08:26:41;;;;;;;52.20;22.93;;;;;;;1.15;56.15;98252.91;5050717;28;20493;-67
2024/01/13 08:29:07;;;;;;;48.30;22.30;;;;;;;1.20;55.63;98248.41;5057486;28;20850;-68
2024/01/13 08:31:32;;;;;;;50.13;22.70;;;;;;;1.26;55.73;98242.94;5050086;28;20448;-68
2024/01/13 08:33:58;;;;;;;55.60;23.20;;;;;;;1.30;55.45;98249.66;5048626;28;20809;-68
2024/01/13 08:36:23;;;;;;;57.30;22.40;;;;;;;1.27;55.57;98254.94;5056573;28;20417;-68
2024/01/13 08:38:49;;;;;;;50.97;22.97;;;;;;;1.22;55.70;98244.00;5036209;28;20195;-67
2024/01/13 08:41:14;;;;;;;53.90;22.43;;;;;;;1.29;55.70;98252.31;5054626;28;20694;-68
2024/01/13 08:43:40;;;;;;;55.20;23.10;;;;;;;1.46;55.72;98259.31;5054500;28;20317;-68
2024/01/13 08:46:07;;;;;;;59.47;23.93;;;;;;;1.42;55.12;98252.59;5051958;28;20666;-68
2024/01/13 08:48:33;;;;;;;70.40;26.43;;;;;;;1.42;55.46;98247.44;5049949;28;20455;-67
2024/01/13 08:50:59;;;;;;;58.50;24.20;;;;;;;1.40;55.55;98239.75;5052962;28;20855;-69
2024/01/13 08:53:24;;;;;;;46.43;21.80;;;;;;;1.35;55.94;98233.94;5046413;28;20425;-66
2024/01/13 08:55:50;;;;;;;51.33;23.97;;;;;;;1.42;55.33;98237.94;5056964;28;20721;-68
2024/01/13 08:58:15;;;;;;;52.30;23.30;;;;;;;1.49;56.00;98238.50;5057780;28;20257;-67
2024/01/13 09:00:41;;;;;;;51.83;21.50;;;;;;;1.57;55.69;98245.91;5025040;28;20244;-68
2024/01/13 09:03:06;;;;;;;46.90;20.93;;;;;;;1.55;55.45;98250.31;5040408;28;20225;-69
2024/01/13 09:05:32;;;;;;;47.97;20.57;;;;;;;1.65;55.51;98249.78;5049148;28;20284;-70
2024/01/13 09:07:59;;;;;;;45.50;20.70;;;;;;;1.70;55.07;98259.94;5065676;28;20300;-68
2024/01/13 09:10:25;;;;;;;49.80;19.90;;;;;;;1.77;54.79;98263.06;5051404;28;20229;-67
2024/01/13 09:12:50;;;;;;;45.80;21.03;;;;;;;1.71;55.38;98269.34;5049826;28;20421;-67
2024/01/13 09:15:15;;;;;;;43.57;18.80;;;;;;;1.77;55.54;98257.88;5050606;28;20183;-66
2024/01/13 09:17:41;;;;;;;40.57;17.73;;;;;;;1.83;55.06;98252.44;5055967;28;20242;-68
2024/01/13 09:20:09;;;;;;;36.40;17.23;;;;;;;1.87;55.22;98259.16;5050559;28;20221;-68
2024/01/13 09:22:34;;;;;;;39.57;18.30;;;;;;;1.97;54.93;98255.22;5046036;28;20218;-68
2024/01/13 09:25:00;;;;;;;35.93;16.70;;;;;;;2.02;54.92;98249.00;5055712;28;20417;-68
2024/01/13 09:27:25;;;;;;;34.90;16.80;;;;;;;2.02;54.77;98242.06;5052136;28;20449;-68
2024/01/13 09:29:51;;;;;;;27.90;13.33;;;;;;;1.99;55.19;98245.66;5054603;28;20221;-68
2024/01/13 09:32:18;;;;;;;21.10;11.03;;;;;;;2.11;54.89;98251.97;5060907;28;20205;-69
2024/01/13 09:34:43;;;;;;;22.10;11.37;;;;;;;2.14;54.92;98259.59;5031289;28;20657;-67
2024/01/13 09:37:10;;;;;;;23.57;11.40;;;;;;;2.13;54.79;98262.25;5039337;28;20520;-69
2024/01/13 09:39:36;;;;;;;19.77;10.47;;;;;;;2.20;54.63;98261.03;5048712;28;20179;-69
2024/01/13 09:42:02;;;;;;;18.93;11.00;;;;;;;2.18;54.44;98265.44;5050878;28;20584;-67
2024/01/13 09:44:29;;;;;;;20.90;11.10;;;;;;;2.22;54.40;98269.56;5056006;28;20186;-69
2024/01/13 09:46:59;;;;;;;19.70;10.50;;;;;;;2.17;54.42;98261.19;5050394;28;20445;-67
2024/01/13 09:49:27;;;;;;;19.90;10.13;;;;;;;2.17;54.34;98253.41;5034788;28;20468;-69
2024/01/13 09:51:54;;;;;;;24.53;13.77;;;;;;;2.22;54.27;98242.84;5057574;28;20417;-68
2024/01/13 09:54:23;;;;;;;22.57;11.23;;;;;;;2.20;54.72;98242.13;5048764;28;20782;-68
2024/01/13 09:56:50;;;;;;;23.53;11.50;;;;;;;2.20;54.49;98245.53;5054501;28;20801;-70
2024/01/13 09:59:16;;;;;;;25.17;11.87;;;;;;;2.21;54.58;98247.19;5055335;28;20883;-69
2024/01/13 10:01:41;;;;;;;24.03;11.93;;;;;;;2.28;54.36;98238.22;5050289;28;20457;-67
2024/01/13 10:04:08;;;;;;;25.33;11.53;;;;;;;2.31;54.42;98234.66;5047921;28;20449;-69
2024/01/13 10:06:35;;;;;;;19.73;11.20;;;;;;;2.27;54.33;98233.13;5056063;28;20683;-69
2024/01/13 10:09:01;;;;;;;24.60;12.83;;;;;;;2.33;54.75;98235.44;5054587;28;20508;-68
2024/01/13 10:11:27;;;;;;;22.33;11.43;;;;;;;2.41;54.22;98216.91;5055496;28;20573;-67
2024/01/13 10:14:07;;;;;;;20.93;11.80;;;;;;;2.37;53.99;98215.41;5046393;28;20429;-68
2024/01/13 10:16:34;;;;;;;22.57;12.27;;;;;;;2.33;54.19;98206.97;5041552;28;20449;-68
2024/01/13 10:19:07;;;;;;;25.87;13.27;;;;;;;2.41;54.50;98203.97;5047535;28;20890;-67
2024/01/13 10:21:32;;;;;;;23.93;12.30;;;;;;;2.43;54.84;98196.97;5045587;28;20498;-67
2024/01/13 10:24:00;;;;;;;22.70;12.40;;;;;;;2.40;53.93;98185.03;5046409;28;20429;-68
2024/01/13 10:26:28;;;;;;;21.60;10.90;;;;;;;2.46;53.46;98178.72;5046806;28;20209;-67
2024/01/13 10:28:59;;;;;;;25.53;12.17;;;;;;;2.52;53.92;98187.91;5054859;28;20437;-68
2024/01/13 10:31:25;;;;;;;28.40;12.60;;;;;;;2.42;53.95;98187.53;5036541;28;20413;-68
2024/01/13 10:33:52;;;;;;;23.17;12.20;;;;;;;2.34;54.38;98187.91;5058794;28;20443;-70
2024/01/13 10:36:22;;;;;;;24.83;13.20;;;;;;;2.41;54.73;98196.22;5058378;28;20790;-68
2024/01/13 10:38:48;;;;;;;24.40;12.30;;;;;;;2.55;54.25;98206.72;5046931;28;20835;-68
2024/01/13 10:41:13;;;;;;;23.43;13.07;;;;;;;2.50;54.51;98193.19;5058389;28;20417;-68
2024/01/13 10:43:42;;;;;;;25.60;13.07;;;;;;;2.56;54.20;98195.44;5056473;28;20193;-71
2024/01/13 10:46:12;;;;;;;24.20;12.60;;;;;;;2.65;54.01;98206.28;5056486;28;20198;-69
2024/01/13 10:48:40;;;;;;;24.53;12.20;;;;;;;2.59;53.80;98205.66;5051224;28;20422;-69
2024/01/13 10:51:11;;;;;;;28.20;13.90;;;;;;;2.59;53.87;98190.13;5040333;28;20427;-70
2024/01/13 10:53:37;;;;;;;25.37;12.73;;;;;;;2.67;53.83;98181.97;5047897;28;20426;-69
2024/01/13 10:56:04;;;;;;;28.07;12.90;;;;;;;2.63;53.48;98177.03;5049346;28;20469;-69
2024/01/13 10:58:30;;;;;;;25.70;13.73;;;;;;;2.65;53.44;98159.66;5058365;28;20451;-69
2024/01/13 11:00:55;;;;;;;29.77;13.17;;;;;;;2.61;53.46;98152.06;5053113;28;20434;-68
2024/01/13 11:03:22;;;;;;;23.00;12.93;;;;;;;2.60;53.57;98142.63;5049032;28;20245;-68
2024/01/13 11:05:47;;;;;;;20.10;12.13;;;;;;;2.63;53.48;98127.84;5057842;28;20300;-69
2024/01/13 11:08:12;;;;;;;22.00;12.80;;;;;;;2.60;53.02;98128.81;5049013;28;20480;-69
2024/01/13 11:10:42;;;;;;;21.27;12.40;;;;;;;2.65;53.29;98128.59;5059268;28;20667;-68
2024/01/13 11:13:13;;;;;;;23.63;13.60;;;;;;;2.57;53.61;98118.66;5055589;28;20187;-68
2024/01/13 11:15:43;;;;;;;25.23;13.30;;;;;;;2.61;53.54;98126.16;5032484;28;20437;-68
2024/01/13 11:18:12;;;;;;;24.73;14.07;;;;;;;2.59;53.68;98122.81;5058035;28;20443;-71